AAL2520 KDFW-KBUF
Flight info
| Callsign | AAL2520 |
|---|---|
| Flight time | 2h 20m |
| Altitude | 37000 |
| Route | ZACHH4 BSKAT TINGS EASEL CREEP WWSHR DKK |
| Aircraft | A320/M-SDE3FGHIRWY/LB1 |
Departure
| Time | 2026-05-05 13:52 |
|---|---|
| Airport | Dallas Fort Worth International Airport (KDFW) |
Arrival
| Time | 2026-05-05 16:13 |
|---|---|
| Airport | Buffalo Niagara International Airport (KBUF) |
| Time | Latitude | Longitude | Altitude | Speed | Heading |
|---|---|---|---|---|---|
| 2026-05-05 13:25 | 32.90195 | -97.04375 | 596 ft | 0 kts | 39° |
| 2026-05-05 13:38 | 32.90184 | -97.04386 | 596 ft | 4 kts | 41° |
| 2026-05-05 13:38 | 32.90166 | -97.04409 | 596 ft | 4 kts | 55° |
| 2026-05-05 13:38 | 32.90155 | -97.04430 | 596 ft | 4 kts | 40° |
| 2026-05-05 13:38 | 32.90139 | -97.04435 | 596 ft | 4 kts | 310° |
| 2026-05-05 13:39 | 32.90134 | -97.04409 | 596 ft | 4 kts | 270° |
| 2026-05-05 13:39 | 32.90134 | -97.04397 | 596 ft | 0 kts | 270° |
| 2026-05-05 13:43 | 32.90134 | -97.04425 | 596 ft | 8 kts | 270° |
| 2026-05-05 13:43 | 32.90134 | -97.04529 | 597 ft | 15 kts | 270° |
| 2026-05-05 13:44 | 32.90134 | -97.04655 | 597 ft | 16 kts | 270° |
| 2026-05-05 13:44 | 32.90152 | -97.04752 | 597 ft | 10 kts | 321° |
| 2026-05-05 13:44 | 32.90221 | -97.04762 | 597 ft | 14 kts | 359° |
| 2026-05-05 13:44 | 32.90334 | -97.04762 | 597 ft | 16 kts | 0° |
| 2026-05-05 13:45 | 32.90434 | -97.04761 | 597 ft | 13 kts | 0° |
| 2026-05-05 13:45 | 32.90521 | -97.04761 | 597 ft | 12 kts | 0° |
| 2026-05-05 13:45 | 32.90612 | -97.04760 | 597 ft | 15 kts | 0° |
| 2026-05-05 13:45 | 32.90735 | -97.04759 | 597 ft | 20 kts | 1° |
| 2026-05-05 13:46 | 32.90879 | -97.04758 | 601 ft | 20 kts | 360° |
| 2026-05-05 13:46 | 32.90993 | -97.04748 | 610 ft | 14 kts | 29° |
| 2026-05-05 13:46 | 32.91011 | -97.04630 | 601 ft | 20 kts | 90° |
| 2026-05-05 13:46 | 32.91009 | -97.04424 | 602 ft | 27 kts | 90° |
| 2026-05-05 13:47 | 32.91009 | -97.04228 | 620 ft | 18 kts | 90° |
| 2026-05-05 13:47 | 32.91009 | -97.04084 | 621 ft | 18 kts | 90° |
| 2026-05-05 13:47 | 32.91008 | -97.03936 | 618 ft | 18 kts | 90° |
| 2026-05-05 13:47 | 32.91008 | -97.03777 | 602 ft | 22 kts | 90° |
| 2026-05-05 13:48 | 32.91007 | -97.03565 | 584 ft | 29 kts | 90° |
| 2026-05-05 13:48 | 32.91006 | -97.03346 | 582 ft | 18 kts | 90° |
| 2026-05-05 13:48 | 32.91065 | -97.03273 | 581 ft | 14 kts | 2° |
| 2026-05-05 13:48 | 32.91152 | -97.03273 | 582 ft | 11 kts | 0° |
| 2026-05-05 13:49 | 32.91233 | -97.03272 | 581 ft | 16 kts | 0° |
| 2026-05-05 13:49 | 32.91381 | -97.03272 | 583 ft | 20 kts | 0° |
| 2026-05-05 13:49 | 32.91478 | -97.03255 | 576 ft | 11 kts | 53° |
| 2026-05-05 13:49 | 32.91486 | -97.03169 | 576 ft | 10 kts | 90° |
| 2026-05-05 13:50 | 32.91486 | -97.03101 | 580 ft | 3 kts | 90° |
| 2026-05-05 13:50 | 32.91486 | -97.03077 | 581 ft | 6 kts | 90° |
| 2026-05-05 13:50 | 32.91486 | -97.03036 | 578 ft | 4 kts | 90° |
| 2026-05-05 13:51 | 32.91484 | -97.02990 | 578 ft | 3 kts | 112° |
| 2026-05-05 13:51 | 32.91459 | -97.02988 | 578 ft | 5 kts | 180° |
| 2026-05-05 13:51 | 32.91274 | -97.02990 | 578 ft | 61 kts | 180° |
| 2026-05-05 13:51 | 32.90635 | -97.02994 | 576 ft | 121 kts | 180° |
| 2026-05-05 13:52 | 32.89635 | -97.02999 | 579 ft | 168 kts | 179° |
| 2026-05-05 13:52 | 32.88439 | -97.02986 | 1079 ft | 174 kts | 180° |
| 2026-05-05 13:52 | 32.87218 | -97.02943 | 1724 ft | 179 kts | 180° |
| 2026-05-05 13:52 | 32.85896 | -97.02891 | 2017 ft | 204 kts | 180° |
| 2026-05-05 13:53 | 32.84416 | -97.02642 | 2391 ft | 228 kts | 162° |
| 2026-05-05 13:53 | 32.82894 | -97.01884 | 2920 ft | 244 kts | 160° |
| 2026-05-05 13:53 | 32.81319 | -97.01080 | 3788 ft | 249 kts | 161° |
| 2026-05-05 13:53 | 32.79711 | -97.00261 | 4626 ft | 255 kts | 160° |
| 2026-05-05 13:54 | 32.78239 | -96.98990 | 5331 ft | 275 kts | 134° |
| 2026-05-05 13:54 | 32.77336 | -96.96901 | 5909 ft | 293 kts | 116° |
| 2026-05-05 13:54 | 32.76673 | -96.94551 | 6494 ft | 307 kts | 104° |
| 2026-05-05 13:54 | 32.76523 | -96.91985 | 7133 ft | 317 kts | 87° |
| 2026-05-05 13:55 | 32.76673 | -96.89353 | 7780 ft | 321 kts | 88° |
| 2026-05-05 13:55 | 32.76791 | -96.86697 | 8483 ft | 325 kts | 88° |
| 2026-05-05 13:55 | 32.77010 | -96.84019 | 9175 ft | 328 kts | 78° |
| 2026-05-05 13:55 | 32.77703 | -96.81433 | 9856 ft | 330 kts | 63° |
| 2026-05-05 13:56 | 32.78791 | -96.79013 | 10409 ft | 339 kts | 59° |
| 2026-05-05 13:56 | 32.79953 | -96.76514 | 10549 ft | 361 kts | 59° |
| 2026-05-05 13:56 | 32.81200 | -96.73827 | 10787 ft | 379 kts | 59° |
| 2026-05-05 13:56 | 32.82477 | -96.71069 | 11326 ft | 385 kts | 59° |
| 2026-05-05 13:57 | 32.83772 | -96.68262 | 11977 ft | 389 kts | 59° |
| 2026-05-05 13:57 | 32.85078 | -96.65432 | 12664 ft | 391 kts | 59° |
| 2026-05-05 13:57 | 32.86392 | -96.62585 | 13323 ft | 395 kts | 59° |
| 2026-05-05 13:57 | 32.87720 | -96.59701 | 13931 ft | 399 kts | 58° |
| 2026-05-05 13:58 | 32.89056 | -96.56790 | 14540 ft | 403 kts | 58° |
| 2026-05-05 13:58 | 32.90406 | -96.53847 | 15136 ft | 407 kts | 58° |
| 2026-05-05 13:58 | 32.91771 | -96.50874 | 15717 ft | 411 kts | 58° |
| 2026-05-05 13:58 | 32.93150 | -96.47870 | 16269 ft | 416 kts | 58° |
| 2026-05-05 13:59 | 32.95929 | -96.41816 | 17361 ft | 424 kts | 57° |
| 2026-05-05 13:59 | 32.97346 | -96.38719 | 17904 ft | 428 kts | 57° |
| 2026-05-05 14:00 | 33.00146 | -96.32398 | 18951 ft | 438 kts | 63° |
| 2026-05-05 14:00 | 33.00948 | -96.30135 | 19292 ft | 441 kts | 63° |
| 2026-05-05 14:00 | 33.02536 | -96.25648 | 19952 ft | 446 kts | 63° |
| 2026-05-05 14:00 | 33.03752 | -96.22223 | 20437 ft | 450 kts | 63° |
| 2026-05-05 14:01 | 33.04979 | -96.18769 | 20923 ft | 454 kts | 63° |
| 2026-05-05 14:01 | 33.06214 | -96.15288 | 21383 ft | 458 kts | 63° |
| 2026-05-05 14:01 | 33.07457 | -96.11776 | 21823 ft | 462 kts | 63° |
| 2026-05-05 14:01 | 33.08709 | -96.08232 | 22242 ft | 467 kts | 63° |
| 2026-05-05 14:02 | 33.09973 | -96.04655 | 22643 ft | 470 kts | 63° |
| 2026-05-05 14:02 | 33.11226 | -96.01101 | 23040 ft | 472 kts | 63° |
| 2026-05-05 14:02 | 33.12501 | -95.97479 | 23437 ft | 476 kts | 63° |
| 2026-05-05 14:02 | 33.13783 | -95.93831 | 23861 ft | 478 kts | 63° |
| 2026-05-05 14:03 | 33.15067 | -95.90164 | 24250 ft | 480 kts | 63° |
| 2026-05-05 14:03 | 33.16357 | -95.86472 | 24585 ft | 484 kts | 63° |
| 2026-05-05 14:03 | 33.17656 | -95.82756 | 24915 ft | 487 kts | 63° |
| 2026-05-05 14:03 | 33.18963 | -95.79011 | 25236 ft | 490 kts | 63° |
| 2026-05-05 14:04 | 33.20277 | -95.75242 | 25534 ft | 493 kts | 63° |
| 2026-05-05 14:04 | 33.21599 | -95.71442 | 25835 ft | 496 kts | 63° |
| 2026-05-05 14:04 | 33.22923 | -95.67631 | 26150 ft | 499 kts | 63° |
| 2026-05-05 14:04 | 33.24257 | -95.63791 | 26446 ft | 502 kts | 63° |
| 2026-05-05 14:05 | 33.25596 | -95.59927 | 26719 ft | 505 kts | 63° |
| 2026-05-05 14:05 | 33.26941 | -95.56039 | 26987 ft | 508 kts | 62° |
| 2026-05-05 14:05 | 33.28274 | -95.52184 | 27251 ft | 511 kts | 62° |
| 2026-05-05 14:05 | 33.29635 | -95.48251 | 27525 ft | 513 kts | 62° |
| 2026-05-05 14:06 | 33.30999 | -95.44300 | 27788 ft | 515 kts | 62° |
| 2026-05-05 14:06 | 33.32365 | -95.40332 | 28044 ft | 518 kts | 62° |
| 2026-05-05 14:06 | 33.33740 | -95.36335 | 28288 ft | 521 kts | 62° |
| 2026-05-05 14:06 | 33.35122 | -95.32324 | 28522 ft | 523 kts | 62° |
| 2026-05-05 14:07 | 33.36512 | -95.28289 | 28760 ft | 525 kts | 62° |
| 2026-05-05 14:07 | 33.37905 | -95.24238 | 28997 ft | 528 kts | 62° |
| 2026-05-05 14:07 | 33.39299 | -95.20165 | 29229 ft | 530 kts | 62° |
| 2026-05-05 14:07 | 33.40692 | -95.16076 | 29441 ft | 531 kts | 62° |
| 2026-05-05 14:08 | 33.42088 | -95.11972 | 29640 ft | 534 kts | 62° |
| 2026-05-05 14:08 | 33.43490 | -95.07852 | 29847 ft | 535 kts | 62° |
| 2026-05-05 14:08 | 33.44901 | -95.03714 | 30038 ft | 538 kts | 62° |
| 2026-05-05 14:08 | 33.45836 | -95.00968 | 30204 ft | 538 kts | 62° |
| 2026-05-05 14:09 | 33.47703 | -94.95481 | 30596 ft | 537 kts | 62° |
| 2026-05-05 14:09 | 33.49110 | -94.91336 | 30877 ft | 537 kts | 62° |
| 2026-05-05 14:09 | 33.50514 | -94.87197 | 31149 ft | 536 kts | 62° |
| 2026-05-05 14:09 | 33.51918 | -94.83058 | 31407 ft | 537 kts | 62° |
| 2026-05-05 14:10 | 33.52867 | -94.80258 | 31590 ft | 537 kts | 62° |
| 2026-05-05 14:10 | 33.54251 | -94.76170 | 31850 ft | 537 kts | 62° |
| 2026-05-05 14:10 | 33.55649 | -94.72027 | 32124 ft | 536 kts | 62° |
| 2026-05-05 14:10 | 33.57046 | -94.67885 | 32403 ft | 536 kts | 61° |
| 2026-05-05 14:11 | 33.58440 | -94.63741 | 32650 ft | 536 kts | 61° |
| 2026-05-05 14:11 | 33.59831 | -94.59600 | 32888 ft | 536 kts | 61° |
| 2026-05-05 14:11 | 33.61221 | -94.55451 | 33145 ft | 536 kts | 61° |
| 2026-05-05 14:11 | 33.62607 | -94.51305 | 33389 ft | 536 kts | 61° |
| 2026-05-05 14:12 | 33.63995 | -94.47156 | 33633 ft | 536 kts | 61° |
| 2026-05-05 14:12 | 33.65382 | -94.43003 | 33868 ft | 536 kts | 61° |
| 2026-05-05 14:12 | 33.66768 | -94.38849 | 34090 ft | 536 kts | 60° |
| 2026-05-05 14:12 | 33.68157 | -94.34695 | 34321 ft | 537 kts | 60° |
| 2026-05-05 14:13 | 33.69542 | -94.30539 | 34558 ft | 536 kts | 61° |
| 2026-05-05 14:13 | 33.70933 | -94.26383 | 34785 ft | 534 kts | 58° |
| 2026-05-05 14:13 | 33.72582 | -94.22439 | 35010 ft | 524 kts | 51° |
| 2026-05-05 14:13 | 33.74404 | -94.18656 | 35203 ft | 523 kts | 51° |
| 2026-05-05 14:14 | 33.76204 | -94.14918 | 35400 ft | 523 kts | 51° |
| 2026-05-05 14:14 | 33.78021 | -94.11132 | 35599 ft | 523 kts | 51° |
| 2026-05-05 14:14 | 33.79833 | -94.07341 | 35787 ft | 522 kts | 51° |
| 2026-05-05 14:14 | 33.81639 | -94.03554 | 35951 ft | 523 kts | 51° |
| 2026-05-05 14:15 | 33.84057 | -93.98483 | 36175 ft | 522 kts | 51° |
| 2026-05-05 14:15 | 33.85252 | -93.95974 | 36282 ft | 522 kts | 51° |
| 2026-05-05 14:15 | 33.87057 | -93.92180 | 36433 ft | 522 kts | 51° |
| 2026-05-05 14:15 | 33.88859 | -93.88386 | 36596 ft | 522 kts | 51° |
| 2026-05-05 14:16 | 33.90656 | -93.84594 | 36771 ft | 521 kts | 51° |
| 2026-05-05 14:16 | 33.92451 | -93.80809 | 36825 ft | 520 kts | 50° |
| 2026-05-05 14:16 | 33.96025 | -93.73283 | 36821 ft | 516 kts | 50° |
| 2026-05-05 14:17 | 33.99572 | -93.65795 | 36821 ft | 514 kts | 50° |
| 2026-05-05 14:17 | 34.03101 | -93.58309 | 36827 ft | 513 kts | 50° |
| 2026-05-05 14:18 | 34.05021 | -93.54746 | 36837 ft | 502 kts | 41° |
| 2026-05-05 14:18 | 34.07172 | -93.51463 | 36840 ft | 499 kts | 40° |
| 2026-05-05 14:18 | 34.11476 | -93.44971 | 36840 ft | 499 kts | 40° |
| 2026-05-05 14:19 | 34.15800 | -93.38427 | 36842 ft | 499 kts | 40° |
| 2026-05-05 14:19 | 34.20121 | -93.31873 | 36842 ft | 499 kts | 40° |
| 2026-05-05 14:20 | 34.24440 | -93.25301 | 36842 ft | 499 kts | 40° |
| 2026-05-05 14:20 | 34.28759 | -93.18731 | 36843 ft | 499 kts | 40° |
| 2026-05-05 14:21 | 34.33072 | -93.12142 | 36845 ft | 500 kts | 40° |
| 2026-05-05 14:21 | 34.37384 | -93.05541 | 36845 ft | 500 kts | 40° |
| 2026-05-05 14:22 | 34.41666 | -92.98981 | 36848 ft | 500 kts | 40° |
| 2026-05-05 14:22 | 34.45979 | -92.92370 | 36850 ft | 500 kts | 40° |
| 2026-05-05 14:23 | 34.50283 | -92.85752 | 36858 ft | 500 kts | 40° |
| 2026-05-05 14:23 | 34.54589 | -92.79118 | 36864 ft | 500 kts | 40° |
| 2026-05-05 14:24 | 34.58884 | -92.72482 | 36865 ft | 500 kts | 40° |
| 2026-05-05 14:24 | 34.63175 | -92.65843 | 36866 ft | 500 kts | 40° |
| 2026-05-05 14:25 | 34.67459 | -92.59203 | 36869 ft | 499 kts | 39° |
| 2026-05-05 14:25 | 34.71706 | -92.52602 | 36874 ft | 499 kts | 40° |
| 2026-05-05 14:26 | 34.75979 | -92.45959 | 36873 ft | 499 kts | 39° |
| 2026-05-05 14:26 | 34.80251 | -92.39311 | 36870 ft | 499 kts | 40° |
| 2026-05-05 14:27 | 34.84515 | -92.32661 | 36868 ft | 498 kts | 40° |
| 2026-05-05 14:27 | 34.88774 | -92.26002 | 36866 ft | 499 kts | 40° |
| 2026-05-05 14:28 | 34.93005 | -92.19372 | 36863 ft | 498 kts | 39° |
| 2026-05-05 14:28 | 34.97261 | -92.12700 | 36863 ft | 499 kts | 40° |
| 2026-05-05 14:29 | 35.01513 | -92.06020 | 36862 ft | 499 kts | 40° |
| 2026-05-05 14:29 | 35.05762 | -91.99316 | 36863 ft | 499 kts | 40° |
| 2026-05-05 14:30 | 35.09997 | -91.92621 | 36873 ft | 498 kts | 39° |
| 2026-05-05 14:30 | 35.14227 | -91.85927 | 36882 ft | 497 kts | 39° |
| 2026-05-05 14:31 | 35.18444 | -91.79238 | 36882 ft | 497 kts | 39° |
| 2026-05-05 14:31 | 35.22630 | -91.72593 | 36884 ft | 496 kts | 39° |
| 2026-05-05 14:32 | 35.26844 | -91.65902 | 36884 ft | 496 kts | 39° |
| 2026-05-05 14:32 | 35.31046 | -91.59202 | 36891 ft | 496 kts | 39° |
| 2026-05-05 14:33 | 35.35243 | -91.52504 | 36888 ft | 495 kts | 39° |
| 2026-05-05 14:33 | 35.39429 | -91.45809 | 36890 ft | 495 kts | 39° |
| 2026-05-05 14:34 | 35.43603 | -91.39105 | 36885 ft | 495 kts | 39° |
| 2026-05-05 14:34 | 35.47779 | -91.32392 | 36884 ft | 494 kts | 39° |
| 2026-05-05 14:35 | 35.51953 | -91.25684 | 36881 ft | 495 kts | 39° |
| 2026-05-05 14:35 | 35.56089 | -91.19016 | 36882 ft | 494 kts | 39° |
| 2026-05-05 14:36 | 35.60245 | -91.12300 | 36880 ft | 494 kts | 39° |
| 2026-05-05 14:36 | 35.64400 | -91.05582 | 36874 ft | 494 kts | 39° |
| 2026-05-05 14:37 | 35.68555 | -90.98859 | 36872 ft | 493 kts | 39° |
| 2026-05-05 14:37 | 35.72696 | -90.92129 | 36877 ft | 493 kts | 39° |
| 2026-05-05 14:38 | 35.76827 | -90.85386 | 36887 ft | 493 kts | 39° |
| 2026-05-05 14:38 | 35.80931 | -90.78691 | 36892 ft | 493 kts | 39° |
| 2026-05-05 14:39 | 35.85045 | -90.71951 | 36893 ft | 492 kts | 38° |
| 2026-05-05 14:39 | 35.89153 | -90.65215 | 36890 ft | 491 kts | 38° |
| 2026-05-05 14:40 | 35.93262 | -90.58475 | 36888 ft | 492 kts | 38° |
| 2026-05-05 14:40 | 35.97372 | -90.51723 | 36892 ft | 492 kts | 38° |
| 2026-05-05 14:41 | 36.01477 | -90.44968 | 36896 ft | 492 kts | 38° |
| 2026-05-05 14:41 | 36.05564 | -90.38210 | 36890 ft | 491 kts | 38° |
| 2026-05-05 14:42 | 36.09620 | -90.31503 | 36886 ft | 490 kts | 38° |
| 2026-05-05 14:42 | 36.13696 | -90.24760 | 36881 ft | 490 kts | 38° |
| 2026-05-05 14:43 | 36.17770 | -90.18007 | 36883 ft | 489 kts | 38° |
| 2026-05-05 14:43 | 36.21827 | -90.11246 | 36879 ft | 489 kts | 38° |
| 2026-05-05 14:44 | 36.25876 | -90.04496 | 36878 ft | 488 kts | 38° |
| 2026-05-05 14:44 | 36.29926 | -89.97739 | 36876 ft | 488 kts | 38° |
| 2026-05-05 14:45 | 36.33965 | -89.90978 | 36874 ft | 488 kts | 38° |
| 2026-05-05 14:45 | 36.37973 | -89.84244 | 36872 ft | 489 kts | 38° |
| 2026-05-05 14:46 | 36.42010 | -89.77460 | 36870 ft | 489 kts | 38° |
| 2026-05-05 14:46 | 36.46055 | -89.70670 | 36873 ft | 489 kts | 38° |
| 2026-05-05 14:47 | 36.50091 | -89.63859 | 36874 ft | 489 kts | 39° |
| 2026-05-05 14:47 | 36.54120 | -89.57046 | 36884 ft | 489 kts | 39° |
| 2026-05-05 14:48 | 36.58155 | -89.50212 | 36883 ft | 490 kts | 39° |
| 2026-05-05 14:48 | 36.62182 | -89.43374 | 36888 ft | 490 kts | 39° |
| 2026-05-05 14:49 | 36.66208 | -89.36525 | 36892 ft | 490 kts | 39° |
| 2026-05-05 14:49 | 36.70226 | -89.29677 | 36894 ft | 489 kts | 39° |
| 2026-05-05 14:50 | 36.74211 | -89.22872 | 36892 ft | 489 kts | 39° |
| 2026-05-05 14:50 | 36.78221 | -89.16015 | 36899 ft | 489 kts | 39° |
| 2026-05-05 14:51 | 36.82230 | -89.09158 | 36899 ft | 489 kts | 39° |
| 2026-05-05 14:51 | 36.86233 | -89.02295 | 36904 ft | 489 kts | 40° |
| 2026-05-05 14:52 | 36.90224 | -88.95417 | 36900 ft | 489 kts | 40° |
| 2026-05-05 14:52 | 36.94211 | -88.88535 | 36897 ft | 489 kts | 40° |
| 2026-05-05 14:53 | 36.98193 | -88.81653 | 36901 ft | 489 kts | 40° |
| 2026-05-05 14:53 | 37.02174 | -88.74760 | 36893 ft | 489 kts | 40° |
| 2026-05-05 14:54 | 37.06121 | -88.67904 | 36897 ft | 489 kts | 40° |
| 2026-05-05 14:54 | 37.10091 | -88.60991 | 36901 ft | 489 kts | 40° |
| 2026-05-05 14:55 | 37.14060 | -88.54079 | 36905 ft | 489 kts | 40° |
| 2026-05-05 14:55 | 37.18028 | -88.47163 | 36904 ft | 488 kts | 40° |
| 2026-05-05 14:56 | 37.21993 | -88.40237 | 36908 ft | 489 kts | 40° |
| 2026-05-05 14:56 | 37.25950 | -88.33293 | 36914 ft | 489 kts | 41° |
| 2026-05-05 14:57 | 37.29910 | -88.26334 | 36911 ft | 488 kts | 39° |
| 2026-05-05 14:57 | 37.34218 | -88.20014 | 36920 ft | 478 kts | 34° |
| 2026-05-05 14:58 | 37.38625 | -88.13735 | 36929 ft | 480 kts | 34° |
| 2026-05-05 14:58 | 37.43037 | -88.07421 | 36931 ft | 481 kts | 34° |
| 2026-05-05 14:59 | 37.47447 | -88.01080 | 36931 ft | 482 kts | 34° |
| 2026-05-05 14:59 | 37.51855 | -87.94725 | 36927 ft | 482 kts | 35° |
| 2026-05-05 15:00 | 37.55518 | -87.89431 | 36920 ft | 482 kts | 35° |
| 2026-05-05 15:00 | 37.60674 | -87.81966 | 36914 ft | 483 kts | 35° |
| 2026-05-05 15:01 | 37.65059 | -87.75617 | 36920 ft | 483 kts | 35° |
| 2026-05-05 15:01 | 37.69471 | -87.69212 | 36922 ft | 484 kts | 35° |
| 2026-05-05 15:02 | 37.73880 | -87.62801 | 36908 ft | 484 kts | 36° |
| 2026-05-05 15:02 | 37.78287 | -87.56373 | 36907 ft | 484 kts | 36° |
| 2026-05-05 15:03 | 37.82697 | -87.49949 | 36905 ft | 484 kts | 35° |
| 2026-05-05 15:03 | 37.87076 | -87.43561 | 36911 ft | 483 kts | 36° |
| 2026-05-05 15:04 | 37.91465 | -87.37125 | 36913 ft | 482 kts | 36° |
| 2026-05-05 15:04 | 37.95845 | -87.30684 | 36909 ft | 482 kts | 36° |
| 2026-05-05 15:05 | 38.02404 | -87.21017 | 36917 ft | 481 kts | 36° |
| 2026-05-05 15:06 | 38.06770 | -87.14573 | 36899 ft | 482 kts | 37° |
| 2026-05-05 15:06 | 38.11116 | -87.08143 | 36889 ft | 483 kts | 37° |
| 2026-05-05 15:07 | 38.15489 | -87.01658 | 36897 ft | 483 kts | 37° |
| 2026-05-05 15:07 | 38.19855 | -86.95179 | 36904 ft | 482 kts | 38° |
| 2026-05-05 15:08 | 38.24216 | -86.88702 | 36902 ft | 482 kts | 38° |
| 2026-05-05 15:08 | 38.28564 | -86.82222 | 36904 ft | 481 kts | 38° |
| 2026-05-05 15:09 | 38.32907 | -86.75733 | 36904 ft | 481 kts | 38° |
| 2026-05-05 15:09 | 38.37230 | -86.69247 | 36887 ft | 480 kts | 38° |
| 2026-05-05 15:10 | 38.41533 | -86.62785 | 36860 ft | 483 kts | 38° |
| 2026-05-05 15:10 | 38.45892 | -86.56249 | 36852 ft | 484 kts | 38° |
| 2026-05-05 15:11 | 38.50253 | -86.49672 | 36857 ft | 486 kts | 38° |
| 2026-05-05 15:11 | 38.54636 | -86.43075 | 36855 ft | 488 kts | 38° |
| 2026-05-05 15:12 | 38.59020 | -86.36446 | 36854 ft | 489 kts | 38° |
| 2026-05-05 15:12 | 38.63388 | -86.29808 | 36857 ft | 488 kts | 38° |
| 2026-05-05 15:13 | 38.67766 | -86.23161 | 36868 ft | 488 kts | 38° |
| 2026-05-05 15:13 | 38.72156 | -86.16500 | 36871 ft | 490 kts | 39° |
| 2026-05-05 15:14 | 38.76525 | -86.09845 | 36869 ft | 492 kts | 39° |
| 2026-05-05 15:14 | 38.80920 | -86.03108 | 36876 ft | 492 kts | 39° |
| 2026-05-05 15:15 | 38.85304 | -85.96368 | 36878 ft | 492 kts | 39° |
| 2026-05-05 15:15 | 38.89691 | -85.89645 | 36888 ft | 491 kts | 39° |
| 2026-05-05 15:16 | 38.94081 | -85.82908 | 36892 ft | 493 kts | 39° |
| 2026-05-05 15:16 | 38.98473 | -85.76142 | 36901 ft | 493 kts | 39° |
| 2026-05-05 15:17 | 39.02859 | -85.69374 | 36902 ft | 491 kts | 39° |
| 2026-05-05 15:17 | 39.07229 | -85.62698 | 36902 ft | 491 kts | 39° |
| 2026-05-05 15:18 | 39.11651 | -85.56007 | 36895 ft | 491 kts | 39° |
| 2026-05-05 15:18 | 39.16067 | -85.49302 | 36887 ft | 490 kts | 39° |
| 2026-05-05 15:19 | 39.20461 | -85.42586 | 36884 ft | 490 kts | 39° |
| 2026-05-05 15:19 | 39.24842 | -85.35855 | 36874 ft | 491 kts | 39° |
| 2026-05-05 15:20 | 39.29237 | -85.29114 | 36874 ft | 491 kts | 39° |
| 2026-05-05 15:20 | 39.33631 | -85.22341 | 36872 ft | 493 kts | 39° |
| 2026-05-05 15:21 | 39.37276 | -85.16697 | 36876 ft | 492 kts | 39° |
| 2026-05-05 15:21 | 39.41672 | -85.09897 | 36886 ft | 493 kts | 40° |
| 2026-05-05 15:22 | 39.46070 | -85.03085 | 36903 ft | 494 kts | 40° |
| 2026-05-05 15:22 | 39.50469 | -84.96259 | 36921 ft | 494 kts | 39° |
| 2026-05-05 15:23 | 39.54861 | -84.89419 | 36929 ft | 493 kts | 40° |
| 2026-05-05 15:23 | 39.59232 | -84.82601 | 36913 ft | 492 kts | 39° |
| 2026-05-05 15:24 | 39.63565 | -84.75837 | 36904 ft | 491 kts | 40° |
| 2026-05-05 15:24 | 39.67917 | -84.69016 | 36899 ft | 490 kts | 40° |
| 2026-05-05 15:25 | 39.72259 | -84.62210 | 36918 ft | 489 kts | 40° |
| 2026-05-05 15:25 | 39.76595 | -84.55402 | 36906 ft | 489 kts | 40° |
| 2026-05-05 15:26 | 39.80918 | -84.48580 | 36902 ft | 489 kts | 40° |
| 2026-05-05 15:26 | 39.85202 | -84.41793 | 36911 ft | 488 kts | 40° |
| 2026-05-05 15:27 | 39.89518 | -84.34964 | 36904 ft | 488 kts | 40° |
| 2026-05-05 15:27 | 39.93839 | -84.28136 | 36893 ft | 488 kts | 39° |
| 2026-05-05 15:28 | 39.98209 | -84.21404 | 36899 ft | 486 kts | 39° |
| 2026-05-05 15:28 | 40.02608 | -84.14720 | 36891 ft | 486 kts | 39° |
| 2026-05-05 15:29 | 40.07005 | -84.08016 | 36889 ft | 486 kts | 39° |
| 2026-05-05 15:29 | 40.11376 | -84.01272 | 36891 ft | 487 kts | 39° |
| 2026-05-05 15:30 | 40.15704 | -83.94542 | 36891 ft | 487 kts | 39° |
| 2026-05-05 15:30 | 40.20060 | -83.87770 | 36885 ft | 486 kts | 39° |
| 2026-05-05 15:31 | 40.24417 | -83.81006 | 36894 ft | 486 kts | 39° |
| 2026-05-05 15:31 | 40.28773 | -83.74235 | 36886 ft | 486 kts | 40° |
| 2026-05-05 15:32 | 40.33118 | -83.67439 | 36886 ft | 487 kts | 40° |
| 2026-05-05 15:32 | 40.37471 | -83.60636 | 36882 ft | 487 kts | 40° |
| 2026-05-05 15:33 | 40.41821 | -83.53828 | 36882 ft | 487 kts | 40° |
| 2026-05-05 15:33 | 40.46140 | -83.47048 | 36873 ft | 488 kts | 41° |
| 2026-05-05 15:34 | 40.50482 | -83.40202 | 36869 ft | 488 kts | 41° |
| 2026-05-05 15:34 | 40.54824 | -83.33342 | 36868 ft | 488 kts | 41° |
| 2026-05-05 15:35 | 40.59167 | -83.26469 | 36868 ft | 489 kts | 42° |
| 2026-05-05 15:35 | 40.63511 | -83.19582 | 36864 ft | 489 kts | 42° |
| 2026-05-05 15:36 | 40.67858 | -83.12679 | 36863 ft | 490 kts | 42° |
| 2026-05-05 15:36 | 40.72176 | -83.05807 | 36862 ft | 490 kts | 43° |
| 2026-05-05 15:37 | 40.76518 | -82.98884 | 36857 ft | 490 kts | 43° |
| 2026-05-05 15:37 | 40.80855 | -82.91950 | 36857 ft | 489 kts | 43° |
| 2026-05-05 15:38 | 40.85178 | -82.85017 | 36852 ft | 489 kts | 43° |
| 2026-05-05 15:38 | 40.89495 | -82.78069 | 36848 ft | 489 kts | 43° |
| 2026-05-05 15:39 | 40.93814 | -82.71116 | 36846 ft | 489 kts | 43° |
| 2026-05-05 15:39 | 40.98136 | -82.64158 | 36844 ft | 489 kts | 43° |
| 2026-05-05 15:40 | 41.02423 | -82.57236 | 36838 ft | 490 kts | 43° |
| 2026-05-05 15:40 | 41.06731 | -82.50239 | 36840 ft | 490 kts | 44° |
| 2026-05-05 15:41 | 41.11030 | -82.43231 | 36836 ft | 490 kts | 44° |
| 2026-05-05 15:41 | 41.15331 | -82.36220 | 36831 ft | 490 kts | 44° |
| 2026-05-05 15:42 | 41.19636 | -82.29208 | 36827 ft | 490 kts | 44° |
| 2026-05-05 15:42 | 41.23939 | -82.22173 | 36815 ft | 491 kts | 44° |
| 2026-05-05 15:43 | 41.28246 | -82.15114 | 36818 ft | 492 kts | 44° |
| 2026-05-05 15:43 | 41.32552 | -82.08033 | 36811 ft | 493 kts | 44° |
| 2026-05-05 15:44 | 41.36355 | -82.00429 | 36816 ft | 501 kts | 54° |
| 2026-05-05 15:44 | 41.39819 | -81.92375 | 36815 ft | 501 kts | 55° |
| 2026-05-05 15:45 | 41.43279 | -81.84328 | 36826 ft | 500 kts | 54° |
| 2026-05-05 15:45 | 41.46734 | -81.76287 | 36820 ft | 500 kts | 55° |
| 2026-05-05 15:46 | 41.50176 | -81.68243 | 36819 ft | 499 kts | 55° |
| 2026-05-05 15:46 | 41.53609 | -81.60196 | 36815 ft | 499 kts | 55° |
| 2026-05-05 15:47 | 41.57014 | -81.52193 | 36820 ft | 499 kts | 55° |
| 2026-05-05 15:47 | 41.60435 | -81.44136 | 36826 ft | 498 kts | 55° |
| 2026-05-05 15:48 | 41.63850 | -81.36082 | 36826 ft | 498 kts | 55° |
| 2026-05-05 15:48 | 41.67254 | -81.28027 | 36820 ft | 497 kts | 55° |
| 2026-05-05 15:49 | 41.70647 | -81.19976 | 36829 ft | 496 kts | 55° |
| 2026-05-05 15:49 | 41.74024 | -81.11934 | 36818 ft | 495 kts | 55° |
| 2026-05-05 15:50 | 41.77393 | -81.03891 | 36834 ft | 494 kts | 56° |
| 2026-05-05 15:50 | 41.80740 | -80.95862 | 36835 ft | 493 kts | 56° |
| 2026-05-05 15:50 | 41.82387 | -80.91912 | 36678 ft | 492 kts | 56° |
| 2026-05-05 15:51 | 41.84051 | -80.87917 | 36425 ft | 490 kts | 56° |
| 2026-05-05 15:51 | 41.85714 | -80.83924 | 36173 ft | 491 kts | 56° |
| 2026-05-05 15:51 | 41.87366 | -80.79930 | 35923 ft | 490 kts | 56° |
| 2026-05-05 15:51 | 41.89023 | -80.75922 | 35672 ft | 492 kts | 56° |
| 2026-05-05 15:52 | 41.90685 | -80.71905 | 35421 ft | 493 kts | 56° |
| 2026-05-05 15:52 | 41.92359 | -80.67864 | 34531 ft | 499 kts | 56° |
| 2026-05-05 15:52 | 41.94060 | -80.63760 | 33568 ft | 504 kts | 56° |
| 2026-05-05 15:52 | 41.95773 | -80.59619 | 32422 ft | 510 kts | 57° |
| 2026-05-05 15:53 | 41.97496 | -80.55451 | 31392 ft | 511 kts | 57° |
| 2026-05-05 15:53 | 41.99202 | -80.51303 | 30804 ft | 502 kts | 57° |
| 2026-05-05 15:53 | 42.00879 | -80.47209 | 30073 ft | 498 kts | 57° |
| 2026-05-05 15:53 | 42.02518 | -80.43204 | 29387 ft | 493 kts | 58° |
| 2026-05-05 15:54 | 42.04166 | -80.39178 | 28704 ft | 489 kts | 58° |
| 2026-05-05 15:54 | 42.05798 | -80.35188 | 28032 ft | 485 kts | 58° |
| 2026-05-05 15:54 | 42.07418 | -80.31224 | 27352 ft | 481 kts | 58° |
| 2026-05-05 15:54 | 42.09025 | -80.27295 | 26696 ft | 478 kts | 58° |
| 2026-05-05 15:55 | 42.10622 | -80.23387 | 26039 ft | 474 kts | 59° |
| 2026-05-05 15:55 | 42.12202 | -80.19504 | 25395 ft | 471 kts | 59° |
| 2026-05-05 15:55 | 42.13767 | -80.15650 | 24777 ft | 467 kts | 59° |
| 2026-05-05 15:55 | 42.15320 | -80.11821 | 24169 ft | 463 kts | 60° |
| 2026-05-05 15:56 | 42.16858 | -80.08025 | 23569 ft | 459 kts | 60° |
| 2026-05-05 15:56 | 42.18381 | -80.04265 | 23016 ft | 455 kts | 60° |
| 2026-05-05 15:56 | 42.19890 | -80.00528 | 22458 ft | 451 kts | 60° |
| 2026-05-05 15:56 | 42.21380 | -79.96828 | 21925 ft | 448 kts | 60° |
| 2026-05-05 15:57 | 42.22861 | -79.93147 | 21385 ft | 444 kts | 60° |
| 2026-05-05 15:57 | 42.24332 | -79.89494 | 20844 ft | 442 kts | 60° |
| 2026-05-05 15:57 | 42.25791 | -79.85863 | 20294 ft | 439 kts | 60° |
| 2026-05-05 15:57 | 42.27242 | -79.82246 | 19734 ft | 437 kts | 60° |
| 2026-05-05 15:58 | 42.28668 | -79.78692 | 19156 ft | 436 kts | 60° |
| 2026-05-05 15:58 | 42.30109 | -79.75102 | 18585 ft | 434 kts | 60° |
| 2026-05-05 15:58 | 42.31537 | -79.71541 | 18060 ft | 430 kts | 61° |
| 2026-05-05 15:58 | 42.32953 | -79.68001 | 17611 ft | 425 kts | 61° |
| 2026-05-05 15:59 | 42.34361 | -79.64473 | 16937 ft | 427 kts | 61° |
| 2026-05-05 15:59 | 42.35756 | -79.60965 | 16351 ft | 425 kts | 61° |
| 2026-05-05 15:59 | 42.37151 | -79.57456 | 15851 ft | 421 kts | 61° |
| 2026-05-05 15:59 | 42.38531 | -79.53987 | 15540 ft | 413 kts | 62° |
| 2026-05-05 16:00 | 42.39868 | -79.50620 | 15415 ft | 400 kts | 62° |
| 2026-05-05 16:00 | 42.41164 | -79.47352 | 15283 ft | 389 kts | 62° |
| 2026-05-05 16:00 | 42.42423 | -79.44175 | 15156 ft | 378 kts | 62° |
| 2026-05-05 16:00 | 42.43649 | -79.41080 | 14999 ft | 369 kts | 62° |
| 2026-05-05 16:01 | 42.44854 | -79.38039 | 14681 ft | 365 kts | 62° |
| 2026-05-05 16:01 | 42.46049 | -79.35014 | 14324 ft | 364 kts | 62° |
| 2026-05-05 16:01 | 42.47241 | -79.32000 | 13958 ft | 363 kts | 61° |
| 2026-05-05 16:01 | 42.48648 | -79.29186 | 13605 ft | 360 kts | 48° |
| 2026-05-05 16:02 | 42.50434 | -79.26836 | 13230 ft | 356 kts | 34° |
| 2026-05-05 16:02 | 42.52502 | -79.25040 | 12870 ft | 350 kts | 22° |
| 2026-05-05 16:02 | 42.54637 | -79.23572 | 12488 ft | 349 kts | 22° |
| 2026-05-05 16:02 | 42.56802 | -79.22081 | 12102 ft | 348 kts | 22° |
| 2026-05-05 16:03 | 42.58963 | -79.20593 | 11711 ft | 348 kts | 21° |
| 2026-05-05 16:03 | 42.61111 | -79.19117 | 11366 ft | 345 kts | 22° |
| 2026-05-05 16:03 | 42.63249 | -79.17643 | 11011 ft | 343 kts | 22° |
| 2026-05-05 16:03 | 42.65368 | -79.16178 | 10664 ft | 340 kts | 22° |
| 2026-05-05 16:04 | 42.67469 | -79.14724 | 10310 ft | 338 kts | 22° |
| 2026-05-05 16:04 | 42.69557 | -79.13282 | 9936 ft | 335 kts | 22° |
| 2026-05-05 16:04 | 42.71630 | -79.11852 | 9567 ft | 334 kts | 22° |
| 2026-05-05 16:04 | 42.73689 | -79.10426 | 9187 ft | 331 kts | 22° |
| 2026-05-05 16:05 | 42.75723 | -79.09013 | 9018 ft | 325 kts | 22° |
| 2026-05-05 16:05 | 42.77737 | -79.07616 | 9021 ft | 325 kts | 22° |
| 2026-05-05 16:05 | 42.79755 | -79.06216 | 9014 ft | 326 kts | 22° |
| 2026-05-05 16:05 | 42.81769 | -79.04811 | 9015 ft | 325 kts | 22° |
| 2026-05-05 16:06 | 42.83784 | -79.03409 | 9016 ft | 326 kts | 22° |
| 2026-05-05 16:06 | 42.85803 | -79.02007 | 9009 ft | 326 kts | 22° |
| 2026-05-05 16:06 | 42.87707 | -79.00296 | 9003 ft | 331 kts | 39° |
| 2026-05-05 16:06 | 42.89257 | -78.97979 | 9010 ft | 333 kts | 51° |
| 2026-05-05 16:07 | 42.90654 | -78.95515 | 8934 ft | 333 kts | 51° |
| 2026-05-05 16:07 | 42.92071 | -78.93021 | 8475 ft | 334 kts | 51° |
| 2026-05-05 16:07 | 42.93491 | -78.90523 | 8064 ft | 332 kts | 51° |
| 2026-05-05 16:07 | 42.94905 | -78.88044 | 7587 ft | 329 kts | 51° |
| 2026-05-05 16:08 | 42.96320 | -78.85568 | 6696 ft | 332 kts | 52° |
| 2026-05-05 16:08 | 42.97741 | -78.83072 | 5818 ft | 334 kts | 51° |
| 2026-05-05 16:08 | 42.99186 | -78.80604 | 5057 ft | 329 kts | 45° |
| 2026-05-05 16:08 | 43.00779 | -78.78479 | 4647 ft | 313 kts | 43° |
| 2026-05-05 16:09 | 43.02321 | -78.76447 | 4167 ft | 301 kts | 42° |
| 2026-05-05 16:09 | 43.03736 | -78.74436 | 3789 ft | 286 kts | 55° |
| 2026-05-05 16:09 | 43.04479 | -78.72033 | 3466 ft | 268 kts | 84° |
| 2026-05-05 16:09 | 43.04388 | -78.69600 | 3157 ft | 248 kts | 111° |
| 2026-05-05 16:10 | 43.03640 | -78.67614 | 3037 ft | 227 kts | 134° |
| 2026-05-05 16:10 | 43.02489 | -78.66256 | 2804 ft | 211 kts | 159° |
| 2026-05-05 16:10 | 43.01157 | -78.65718 | 2550 ft | 193 kts | 182° |
| 2026-05-05 16:10 | 42.99914 | -78.65972 | 2304 ft | 172 kts | 205° |
| 2026-05-05 16:11 | 42.98917 | -78.66696 | 2043 ft | 153 kts | 219° |
| 2026-05-05 16:11 | 42.96886 | -78.69264 | 1375 ft | 123 kts | 225° |
| 2026-05-05 16:12 | 42.96267 | -78.70079 | 1193 ft | 124 kts | 226° |
| 2026-05-05 16:12 | 42.95023 | -78.71663 | 815 ft | 121 kts | 231° |
| 2026-05-05 16:13 | 42.93795 | -78.73276 | 718 ft | 14 kts | 208° |
| 2026-05-05 16:13 | 42.93706 | -78.73283 | 721 ft | 12 kts | 179° |
| 2026-05-05 16:13 | 42.93662 | -78.73282 | 718 ft | 0 kts | 179° |
| 2026-05-05 16:14 | 42.93649 | -78.73283 | 715 ft | 6 kts | 188° |
| 2026-05-05 16:14 | 42.93547 | -78.73349 | 716 ft | 10 kts | 156° |
| 2026-05-05 16:15 | 42.93482 | -78.73309 | 709 ft | 3 kts | 160° |
| 2026-05-05 16:15 | 42.93455 | -78.73296 | 709 ft | 0 kts | 160° |